Penang/Bayan Lepas, Malaysia
Current Conditions -  °F | °C
As of 5:00 AM on Wednesday 28 Jan 2015 (Local Time) from WMKP Reporting Station
Broken Clouds Broken Clouds  
Wind Chill: 77°   Ceiling: 30000
Heat Index: 78°   Visibility: 4mi
Dew Point: 72°   Wind: 5mph
Humidity: 83%   Direction: 20°NNE
Pressure: 29.8"   Gusts: NA
Location:  5.29°N, 100.28°E
Report Text: WMKP 272100Z 02004KT 7000 FEW025 BKN300 25/22 Q1009 NOSIG
Loading
Personal Weather Stations






























Interactive Weather Map New forecast layout! Learn more

10-Day Weather Forecast

Advertisements
Track Severe Weather on mobile